• Join FlightAware (Why Join?)
  • Login
  • US Flag 
06:21AM EDT


 

Airport Tracker/Info


-or-


 

Live Flight TrackerFlight Track Log ✈ USC110 ✈ 14-Jun-2013 ✈ KBKL - KYIP

Flight Track Log - Related Links

Times and Time Zones

All times are in EDT time to prevent confusion due to time zone crossing. See the USC110 flight status page for this flight to view local times or setup timezone preferences in your user account.

Time Position Orientation Groundspeed Altitude Reporting Facility
EDT Latitude Longitude Course Direction KTS MPH feet Rate Location/Type
11:10PM 41.5333 -81.7147 322° Northwest 98 113 2,100  Level Cleveland Center
11:11PM 41.5497 -81.7375 314° West 94 108 3,400 1,320 Climbing Cleveland Center
11:12PM 41.5683 -81.7628 315° West 83 96 4,800 1,200 Climbing Cleveland Center
11:13PM 41.5783 -81.7906 296° West 88 101 5,900 1,140 Climbing Cleveland Center
11:14PM 41.5906 -81.8186 300° West 86 99 7,100 1,020 Climbing Cleveland Center
11:15PM 41.6006 -81.8467 295° West 91 105 8,000 540 Climbing Cleveland Center
11:16PM 41.6231 -81.8886 306° West 150 173 8,300 660 Climbing Cleveland Center
11:17PM 41.6350 -81.9361 289° West 118 136 9,400 840 Climbing Cleveland Center
11:18PM 41.6450 -81.9753 289° West 118 136 10,000 240 Climbing Cleveland Center
11:19PM 41.6611 -82.0256 293° West 147 169 10,000  Level Cleveland Center
11:20PM 41.6772 -82.0761 293° West 146 168 10,000  Level Cleveland Center
11:21PM 41.6931 -82.1236 294° West 145 167 10,000  Level Cleveland Center
11:22PM 41.7031 -82.1683 287° West 145 167 10,000  Level Cleveland Center
11:23PM 41.7169 -82.2161 291° West 150 173 10,000  Level Cleveland Center
11:24PM 41.7331 -82.2583 297° West 144 166 10,000  Level Cleveland Center
11:24PM 41.7328 -82.2664 267° West 150 173 10,000  Level Cleveland Center
11:25PM 41.7467 -82.3142 291° West 145 167 10,000  Level Cleveland Center
11:26PM 41.7647 -82.3703 293° West 148 170 10,000  Level Cleveland Center
11:27PM 41.7786 -82.4181 291° West 147 169 10,000  Level Cleveland Center
11:28PM 41.7964 -82.4717 294° West 146 168 10,000  Level Cleveland Center
11:29PM 41.8103 -82.5219 290° West 146 168 10,000  Level Cleveland Center
11:30PM 41.8258 -82.5728 292° West 148 170 10,000 -60 Level Cleveland Center
11:31PM 41.8458 -82.6236 298° West 148 170 9,900  Descending Cleveland Center
11:32PM 41.8831 -82.6497 332° Northwest 145 167 10,000  Climbing Cleveland Center
11:33PM 41.9203 -82.6622 346° North 146 168 10,000 -120 Level Cleveland Center
11:34PM 41.9531 -82.6939 324° Northwest 152 175 9,800 -300 Descending Cleveland Center
11:35PM 41.9772 -82.7422 304° West 157 181 9,400 -480 Descending Cleveland Center
11:36PM 42.0033 -82.7906 306° West 158 182 8,900 -840 Descending Cleveland Center
11:37PM 42.0356 -82.8447 309° West 181 208 7,800 -960 Descending Cleveland Center
11:38PM 42.0658 -82.8964 308° West 175 201 7,000 -720 Descending Cleveland Center
11:39PM 42.0942 -82.9450 308° West 171 197 6,400 -660 Descending Cleveland Center
11:40PM 42.1264 -82.9936 312° West 167 192 5,700 -720 Descending Cleveland Center
11:41PM 42.1589 -83.0369 315° West 165 190 5,000 -360 Descending Cleveland Center
11:42PM 42.1850 -83.0828 308° West 158 182 5,000  Level Cleveland Center
11:44PM 42.2131 -83.1261 311° West 147 169 5,000  Level Cleveland Center
11:45PM 42.2119 -83.1847 269° West 157 181 5,000  Level Cleveland Center
11:46PM 42.2147 -83.2383 274° West 149 171 5,000  Level Cleveland Center
11:47PM 42.2325 -83.2867 296° West 149 171 5,000  Level Cleveland Center
11:48PM 42.2564 -83.3325 305° West 149 171 5,000  Level Cleveland Center
11:49PM 42.2803 -83.3783 305° West 147 169 5,000 -360 Level Cleveland Center
11:50PM 42.2978 -83.4325 294° West 173 199 4,300 -1,020 Descending Cleveland Center
11:51PM 42.2800 -83.4767 241° Southwest 93 107 3,000 -1,260 Descending Cleveland Center
11:52PM 42.2628 -83.4983 223° Southwest 85 98 1,800 -1,200 Descending Cleveland Center
11:54PM 42.2333 -83.5167 236° Southwest  Level FlightAware Approximate
12:01AM 42.2393 -83.5310 236° Southwest  Level Estimated